createdAt,value
2022-09-04T00:01:04.200Z,16.90
2022-09-04T00:03:57.963Z,16.90
2022-09-04T00:06:51.084Z,16.80
2022-09-04T00:09:44.325Z,16.90
2022-09-04T00:12:34.079Z,16.80
2022-09-04T00:15:22.638Z,16.80
2022-09-04T00:18:14.113Z,16.80
2022-09-04T00:21:06.559Z,16.70
2022-09-04T00:23:57.377Z,16.70
2022-09-04T00:26:50.463Z,16.70
2022-09-04T00:29:42.215Z,16.70
2022-09-04T00:32:34.787Z,16.70
2022-09-04T00:35:23.611Z,16.80
2022-09-04T00:38:15.205Z,16.90
2022-09-04T00:41:07.416Z,16.80
2022-09-04T00:44:05.199Z,16.80
2022-09-04T00:47:03.593Z,16.80
2022-09-04T00:50:07.281Z,16.70
2022-09-04T00:53:13.333Z,16.80
2022-09-04T00:56:08.516Z,16.70
2022-09-04T00:59:02.976Z,16.70
2022-09-04T01:01:52.008Z,16.70
2022-09-04T01:04:44.722Z,16.70
2022-09-04T01:07:43.100Z,16.70
2022-09-04T01:10:39.711Z,16.60
2022-09-04T01:13:34.154Z,16.60
2022-09-04T01:16:26.093Z,16.60
2022-09-04T01:19:24.555Z,16.60
2022-09-04T01:22:17.495Z,16.60
2022-09-04T01:25:11.973Z,16.50
2022-09-04T01:28:05.043Z,16.50
2022-09-04T01:30:55.706Z,16.50
2022-09-04T01:33:46.296Z,16.50
2022-09-04T01:36:38.336Z,16.50
2022-09-04T01:39:28.660Z,16.60
2022-09-04T01:42:19.847Z,16.60
2022-09-04T01:45:11.195Z,16.50
2022-09-04T01:48:02.197Z,16.50
2022-09-04T01:50:51.755Z,16.60
2022-09-04T01:53:43.575Z,16.70
2022-09-04T01:56:36.345Z,16.70
2022-09-04T01:59:27.447Z,16.70
2022-09-04T02:02:19.195Z,16.70
2022-09-04T02:05:10.055Z,16.70
2022-09-04T02:08:02.368Z,16.70
2022-09-04T02:10:56.562Z,16.90
2022-09-04T02:14:04.580Z,16.70
2022-09-04T02:17:00.486Z,16.70
2022-09-04T02:20:01.238Z,16.60
2022-09-04T02:22:52.419Z,16.70
2022-09-04T02:25:42.517Z,16.60
2022-09-04T02:28:34.619Z,16.60
2022-09-04T02:31:29.935Z,16.60
2022-09-04T02:34:23.188Z,16.60
2022-09-04T02:37:16.309Z,16.50
2022-09-04T02:40:12.103Z,16.50
2022-09-04T02:43:05.595Z,16.40
2022-09-04T02:45:57.222Z,16.40
2022-09-04T02:48:52.347Z,16.30
2022-09-04T02:51:47.797Z,16.30
2022-09-04T02:54:43.876Z,16.30
2022-09-04T02:57:39.711Z,16.30
2022-09-04T03:00:33.449Z,16.30
2022-09-04T03:03:22.510Z,16.20
2022-09-04T03:06:11.896Z,16.20
2022-09-04T03:09:06.216Z,16.20
2022-09-04T03:11:59.023Z,16.20
2022-09-04T03:14:51.847Z,16.30
2022-09-04T03:17:47.315Z,16.10
2022-09-04T03:20:39.443Z,16.20
2022-09-04T03:23:33.238Z,16.20
2022-09-04T03:26:23.431Z,16.20
2022-09-04T03:29:15.749Z,16.20
2022-09-04T03:32:15.879Z,16.20
2022-09-04T03:35:08.065Z,16.10
2022-09-04T03:38:07.836Z,16.20
2022-09-04T03:41:04.585Z,16.10
2022-09-04T03:43:58.944Z,16.10
2022-09-04T03:46:53.907Z,16.10
2022-09-04T03:49:48.152Z,16.20
2022-09-04T03:52:45.624Z,16.20
2022-09-04T03:55:38.424Z,16.20
2022-09-04T03:58:29.401Z,16.30
2022-09-04T04:01:25.141Z,16.30
2022-09-04T04:04:34.350Z,16.40
2022-09-04T04:07:28.130Z,16.30
2022-09-04T04:10:22.817Z,16.30
2022-09-04T04:13:22.373Z,16.30
2022-09-04T04:16:25.972Z,16.40
2022-09-04T04:19:25.685Z,16.30
2022-09-04T04:22:22.149Z,16.30
2022-09-04T04:25:20.188Z,16.20
2022-09-04T04:28:20.327Z,16.30
2022-09-04T04:31:14.994Z,16.10
2022-09-04T04:34:07.482Z,16.10
2022-09-04T04:36:57.636Z,16.00
2022-09-04T04:39:50.938Z,16.00
2022-09-04T04:42:44.003Z,16.00
2022-09-04T04:45:51.416Z,16.00
2022-09-04T04:48:59.965Z,16.10
2022-09-04T04:52:08.234Z,16.10
2022-09-04T04:55:06.470Z,16.00
2022-09-04T04:58:01.752Z,16.20
2022-09-04T05:00:51.653Z,16.20
2022-09-04T05:03:51.048Z,16.20
2022-09-04T05:06:42.763Z,16.30
2022-09-04T05:09:35.435Z,16.40
2022-09-04T05:12:28.855Z,16.40
2022-09-04T05:15:19.297Z,16.40
2022-09-04T05:18:12.626Z,16.50
2022-09-04T05:21:05.475Z,16.40
2022-09-04T05:23:55.607Z,16.40
2022-09-04T05:26:46.782Z,16.40
2022-09-04T05:29:41.046Z,16.40
2022-09-04T05:32:32.595Z,16.30
2022-09-04T05:35:24.134Z,16.30
2022-09-04T05:38:17.640Z,16.20
2022-09-04T05:41:07.134Z,16.20
2022-09-04T05:44:01.908Z,16.20
2022-09-04T05:46:56.954Z,16.20
2022-09-04T05:49:54.581Z,16.20
2022-09-04T05:52:52.000Z,16.20
2022-09-04T05:55:49.686Z,16.20
2022-09-04T05:58:50.542Z,16.30
2022-09-04T06:01:51.988Z,16.40
2022-09-04T06:04:53.743Z,16.50
2022-09-04T06:07:45.207Z,16.60
2022-09-04T06:10:37.630Z,16.60
2022-09-04T06:13:32.030Z,16.70
2022-09-04T06:16:28.153Z,16.80
2022-09-04T06:19:21.227Z,16.90
2022-09-04T06:22:30.780Z,16.90
2022-09-04T06:25:25.492Z,16.90
2022-09-04T06:28:19.191Z,17.00
2022-09-04T06:31:12.883Z,17.00
2022-09-04T06:34:05.330Z,17.00
2022-09-04T06:36:57.623Z,17.00
2022-09-04T06:40:00.924Z,17.00
2022-09-04T06:42:53.699Z,17.10
2022-09-04T06:45:46.645Z,17.10
2022-09-04T06:48:43.334Z,17.20
2022-09-04T06:51:38.383Z,17.20
2022-09-04T06:54:33.372Z,17.20
2022-09-04T06:57:32.808Z,17.30
2022-09-04T07:00:20.464Z,17.30
2022-09-04T07:03:28.796Z,17.40
2022-09-04T07:06:20.776Z,17.60
2022-09-04T07:09:12.630Z,17.50
2022-09-04T07:12:27.862Z,17.60
2022-09-04T07:15:42.508Z,17.70
2022-09-04T07:18:42.987Z,17.80
2022-09-04T07:21:33.599Z,17.90
2022-09-04T07:24:38.807Z,18.00
2022-09-04T07:27:37.643Z,18.00
2022-09-04T07:30:28.732Z,18.20
2022-09-04T07:33:20.638Z,18.10
2022-09-04T07:36:14.759Z,18.30
2022-09-04T07:39:06.118Z,18.30
2022-09-04T07:41:57.365Z,18.50
2022-09-04T07:44:48.979Z,18.60
2022-09-04T07:47:39.585Z,18.70
2022-09-04T07:50:27.800Z,18.90
2022-09-04T07:53:24.454Z,19.00
2022-09-04T07:56:18.728Z,19.20
2022-09-04T07:59:25.294Z,19.30
2022-09-04T08:02:22.966Z,19.50
2022-09-04T08:05:20.906Z,19.60
2022-09-04T08:08:21.388Z,19.70
2022-09-04T08:11:28.221Z,19.80
2022-09-04T08:14:22.127Z,19.90
2022-09-04T08:17:41.496Z,20.00
2022-09-04T08:20:36.899Z,20.10
2022-09-04T08:23:31.852Z,20.20
2022-09-04T08:26:25.158Z,20.30
2022-09-04T08:29:20.573Z,20.40
2022-09-04T08:32:21.398Z,20.60
2022-09-04T08:35:18.125Z,20.70
2022-09-04T08:38:19.146Z,20.90
2022-09-04T08:41:18.921Z,20.90
2022-09-04T08:44:32.658Z,21.10
2022-09-04T08:47:32.001Z,21.30
2022-09-04T08:50:34.513Z,21.40
2022-09-04T08:53:40.730Z,21.50
2022-09-04T08:56:31.529Z,21.70
2022-09-04T08:59:40.717Z,21.80
2022-09-04T09:02:55.391Z,21.80
2022-09-04T09:05:57.588Z,21.90
2022-09-04T09:09:02.543Z,22.10
2022-09-04T09:12:04.964Z,22.10
2022-09-04T09:15:14.015Z,22.30
2022-09-04T09:18:03.195Z,22.40
2022-09-04T09:20:55.223Z,22.60
2022-09-04T09:24:03.571Z,22.80
2022-09-04T09:27:02.135Z,23.10
2022-09-04T09:30:03.355Z,23.30
2022-09-04T09:33:02.411Z,23.50
2022-09-04T09:36:09.201Z,23.60
2022-09-04T09:39:15.022Z,23.60
2022-09-04T09:42:24.138Z,23.60
2022-09-04T09:45:28.144Z,23.70
2022-09-04T09:48:37.033Z,23.60
2022-09-04T09:51:46.736Z,23.80
2022-09-04T09:54:58.599Z,24.10
2022-09-04T09:58:01.324Z,24.30
2022-09-04T10:00:59.138Z,24.60
2022-09-04T10:04:17.040Z,24.90
2022-09-04T10:07:21.339Z,25.10
2022-09-04T10:10:24.927Z,25.10
2022-09-04T10:13:42.482Z,25.10
2022-09-04T10:16:58.302Z,25.10
2022-09-04T10:20:20.499Z,25.20
2022-09-04T10:23:35.714Z,25.10
2022-09-04T10:26:51.204Z,25.10
2022-09-04T10:29:46.704Z,25.00
2022-09-04T10:32:51.324Z,25.00
2022-09-04T10:35:47.262Z,24.70
2022-09-04T10:39:01.534Z,25.00
2022-09-04T10:42:01.472Z,25.10
2022-09-04T10:45:00.721Z,25.20
2022-09-04T10:48:08.926Z,25.20
2022-09-04T10:51:11.874Z,25.40
2022-09-04T10:54:14.921Z,25.40
2022-09-04T10:57:10.195Z,25.60
2022-09-04T11:00:05.801Z,25.60
2022-09-04T11:03:13.078Z,25.70
2022-09-04T11:06:19.578Z,25.90
2022-09-04T11:09:15.991Z,26.00
2022-09-04T11:12:21.377Z,26.10
2022-09-04T11:15:25.547Z,26.10
2022-09-04T11:18:30.763Z,26.00
2022-09-04T11:21:37.367Z,26.00
2022-09-04T11:24:44.678Z,25.90
2022-09-04T11:27:56.308Z,26.00
2022-09-04T11:30:55.701Z,26.20
2022-09-04T11:34:08.290Z,26.30
2022-09-04T11:37:19.507Z,26.50
2022-09-04T11:40:19.862Z,26.60
2022-09-04T11:43:16.112Z,26.60
2022-09-04T11:46:26.265Z,26.70
2022-09-04T11:49:21.005Z,26.70
2022-09-04T11:52:16.241Z,26.90
2022-09-04T11:55:31.385Z,26.90
2022-09-04T11:58:30.606Z,26.90
2022-09-04T12:01:25.872Z,27.20
2022-09-04T12:04:26.667Z,27.20
2022-09-04T12:07:19.826Z,27.30
2022-09-04T12:10:15.410Z,27.40
2022-09-04T12:13:18.501Z,27.40
2022-09-04T12:16:15.035Z,27.40
2022-09-04T12:19:21.459Z,27.40
2022-09-04T12:22:36.119Z,27.40
2022-09-04T12:25:35.096Z,27.50
2022-09-04T12:28:40.373Z,27.60
2022-09-04T12:31:51.899Z,27.60
2022-09-04T12:35:09.077Z,27.60
2022-09-04T12:38:11.694Z,27.80
2022-09-04T12:41:03.051Z,27.90
2022-09-04T12:43:56.784Z,28.00
2022-09-04T12:46:55.739Z,28.10
2022-09-04T12:49:58.390Z,28.00
2022-09-04T12:53:05.768Z,27.80
2022-09-04T12:56:03.306Z,27.80
2022-09-04T12:58:56.159Z,27.70
2022-09-04T13:01:52.854Z,27.60
2022-09-04T13:04:47.159Z,27.60
2022-09-04T13:07:43.090Z,27.80
2022-09-04T13:10:36.143Z,27.90
2022-09-04T13:13:28.390Z,28.00
2022-09-04T13:16:22.652Z,28.00
2022-09-04T13:19:15.131Z,28.10
2022-09-04T13:22:10.018Z,28.10
2022-09-04T13:25:02.806Z,28.20
2022-09-04T13:27:57.479Z,28.20
2022-09-04T13:30:48.657Z,28.10
2022-09-04T13:33:49.213Z,28.10
2022-09-04T13:36:42.818Z,27.90
2022-09-04T13:39:45.691Z,27.90
2022-09-04T13:42:52.106Z,27.10
2022-09-04T13:45:41.975Z,27.70
2022-09-04T13:48:37.422Z,27.50
2022-09-04T13:51:29.914Z,27.80
2022-09-04T13:54:19.667Z,28.00
2022-09-04T13:57:09.473Z,28.00
2022-09-04T14:00:00.341Z,28.20
2022-09-04T14:02:48.689Z,28.50
2022-09-04T14:05:38.737Z,28.50
2022-09-04T14:08:31.376Z,28.70
2022-09-04T14:11:30.302Z,28.70
2022-09-04T14:14:32.653Z,28.60
2022-09-04T14:17:27.086Z,28.70
2022-09-04T14:20:20.676Z,29.00
2022-09-04T14:23:20.490Z,28.90
2022-09-04T14:26:14.451Z,29.00
2022-09-04T14:29:05.248Z,28.80
2022-09-04T14:31:58.921Z,28.80
2022-09-04T14:34:50.256Z,28.60
2022-09-04T14:37:49.334Z,28.60
2022-09-04T14:40:39.911Z,28.60
2022-09-04T14:43:33.473Z,28.60
2022-09-04T14:46:24.318Z,28.60
2022-09-04T14:49:16.553Z,28.70
2022-09-04T14:52:11.461Z,28.70
2022-09-04T14:54:59.741Z,28.80
2022-09-04T14:57:51.449Z,29.00
2022-09-04T15:00:57.270Z,29.10
2022-09-04T15:03:47.308Z,29.10
2022-09-04T15:06:49.309Z,29.10
2022-09-04T15:09:48.138Z,29.10
2022-09-04T15:12:37.555Z,29.00
2022-09-04T15:15:32.302Z,28.80
2022-09-04T15:18:23.649Z,28.80
2022-09-04T15:21:18.316Z,28.60
2022-09-04T15:24:13.512Z,28.40
2022-09-04T15:27:06.753Z,28.10
2022-09-04T15:30:05.345Z,28.10
2022-09-04T15:33:04.363Z,28.30
2022-09-04T15:35:59.185Z,28.40
2022-09-04T15:38:49.803Z,28.50
2022-09-04T15:41:39.763Z,28.40
2022-09-04T15:44:30.395Z,28.20
2022-09-04T15:47:20.518Z,28.10
2022-09-04T15:50:18.956Z,28.20
2022-09-04T15:53:14.341Z,28.30
2022-09-04T15:56:06.345Z,28.40
2022-09-04T15:58:57.800Z,28.40
2022-09-04T16:01:49.651Z,28.50
2022-09-04T16:04:42.459Z,28.60
2022-09-04T16:07:36.865Z,28.60
2022-09-04T16:10:26.908Z,28.60
2022-09-04T16:13:31.070Z,28.60
2022-09-04T16:16:23.002Z,28.50
2022-09-04T16:19:31.865Z,28.50
2022-09-04T16:22:27.445Z,28.50
2022-09-04T16:25:27.241Z,28.40
2022-09-04T16:28:19.336Z,28.40
2022-09-04T16:31:12.313Z,28.40
2022-09-04T16:34:01.259Z,26.90
2022-09-04T16:36:51.723Z,28.40
2022-09-04T16:39:46.668Z,28.40
2022-09-04T16:42:40.309Z,28.30
2022-09-04T16:45:30.197Z,28.10
2022-09-04T16:48:34.149Z,28.00
2022-09-04T16:51:41.008Z,28.10
2022-09-04T16:54:32.025Z,27.90
2022-09-04T16:57:21.619Z,27.70
2022-09-04T17:00:13.661Z,27.60
2022-09-04T17:03:02.979Z,27.30
2022-09-04T17:05:52.998Z,27.30
2022-09-04T17:08:41.305Z,27.20
2022-09-04T17:11:32.429Z,27.10
2022-09-04T17:14:21.868Z,27.10
2022-09-04T17:17:30.121Z,27.10
2022-09-04T17:20:23.883Z,27.00
2022-09-04T17:29:01.229Z,26.80
2022-09-04T17:29:09.935Z,26.70
2022-09-04T17:29:49.659Z,26.40
2022-09-04T17:37:07.869Z,26.20
2022-09-04T17:40:36.360Z,25.90
2022-09-04T17:40:55.715Z,25.80
2022-09-04T17:42:22.350Z,25.50
2022-09-04T17:45:13.964Z,25.30
2022-09-04T17:48:06.992Z,25.30
2022-09-04T17:51:03.559Z,25.10
2022-09-04T17:53:52.877Z,25.10
2022-09-04T17:56:42.743Z,24.90
2022-09-04T17:59:35.400Z,24.80
2022-09-04T18:02:29.084Z,24.60
2022-09-04T18:05:21.928Z,24.40
2022-09-04T18:08:12.996Z,24.40
2022-09-04T18:11:06.800Z,24.10
2022-09-04T18:14:01.357Z,24.00
2022-09-04T18:17:11.648Z,23.80
2022-09-04T18:20:08.247Z,23.70
2022-09-04T18:23:03.381Z,23.30
2022-09-04T18:25:54.155Z,23.40
2022-09-04T18:28:50.493Z,23.30
2022-09-04T18:37:08.217Z,23.20
2022-09-04T18:37:23.606Z,23.00
2022-09-04T18:38:00.862Z,23.00
2022-09-04T18:46:28.843Z,22.80
2022-09-04T18:50:31.250Z,22.80
2022-09-04T18:50:51.124Z,22.80
2022-09-04T18:53:42.575Z,22.70
2022-09-04T18:56:36.239Z,22.80
2022-09-04T18:59:28.035Z,22.70
2022-09-04T19:02:19.262Z,22.60
2022-09-04T19:05:08.834Z,22.50
2022-09-04T19:07:59.218Z,22.40
2022-09-04T19:10:48.385Z,22.30
2022-09-04T19:13:40.604Z,22.20
2022-09-04T19:16:33.272Z,22.20
2022-09-04T19:19:22.732Z,22.10
2022-09-04T19:22:14.982Z,22.00
2022-09-04T19:25:05.028Z,21.90
2022-09-04T19:27:55.337Z,21.80
2022-09-04T19:30:51.741Z,21.70
2022-09-04T19:33:42.626Z,21.60
2022-09-04T19:36:35.702Z,21.50
2022-09-04T19:46:07.235Z,21.50
2022-09-04T19:46:12.323Z,21.20
2022-09-04T19:46:18.487Z,21.40
2022-09-04T19:50:16.911Z,21.10
2022-09-04T19:53:33.979Z,21.00
2022-09-04T19:55:36.259Z,20.90
2022-09-04T19:58:27.414Z,20.80
2022-09-04T20:01:17.356Z,20.70
2022-09-04T20:04:09.933Z,20.70
2022-09-04T20:07:02.638Z,20.60
2022-09-04T20:09:51.940Z,20.60
2022-09-04T20:12:50.875Z,20.50
2022-09-04T20:15:43.019Z,20.40
2022-09-04T20:18:38.797Z,20.30
2022-09-04T20:21:34.634Z,20.30
2022-09-04T20:24:24.449Z,20.10
2022-09-04T20:27:15.953Z,20.00
2022-09-04T20:30:08.374Z,20.00
2022-09-04T20:33:01.776Z,20.00
2022-09-04T20:35:54.077Z,19.90
2022-09-04T20:38:46.109Z,19.80
2022-09-04T20:41:35.605Z,19.80
2022-09-04T20:44:28.516Z,19.80
2022-09-04T20:52:45.033Z,19.80
2022-09-04T20:52:54.417Z,19.80
2022-09-04T20:53:41.511Z,19.70
2022-09-04T20:57:29.742Z,19.70
2022-09-04T21:03:24.383Z,19.60
2022-09-04T21:03:24.519Z,19.70
2022-09-04T21:06:11.786Z,19.60
2022-09-04T21:09:08.755Z,19.50
2022-09-04T21:12:02.313Z,19.40
2022-09-04T21:14:51.672Z,19.40
2022-09-04T21:17:45.048Z,19.40
2022-09-04T21:20:44.852Z,19.30
2022-09-04T21:24:03.674Z,19.20
2022-09-04T21:27:06.833Z,19.20
2022-09-04T21:29:59.545Z,19.10
2022-09-04T21:33:21.484Z,19.10
2022-09-04T21:36:25.243Z,19.00
2022-09-04T21:39:26.137Z,19.00
2022-09-04T21:42:22.291Z,19.00
2022-09-04T21:45:20.179Z,19.00
2022-09-04T21:48:28.273Z,18.90
2022-09-04T21:51:31.738Z,19.00
2022-09-04T21:54:37.600Z,18.90
2022-09-04T22:02:30.816Z,18.90
2022-09-04T22:02:49.738Z,18.80
2022-09-04T22:04:35.284Z,18.70
2022-09-04T22:10:16.845Z,18.70
2022-09-04T22:13:31.196Z,18.80
2022-09-04T22:14:03.383Z,18.80
2022-09-04T22:17:06.819Z,18.80
2022-09-04T22:20:15.185Z,18.70
2022-09-04T22:23:27.834Z,18.70
2022-09-04T22:26:29.157Z,18.70
2022-09-04T22:29:39.344Z,18.70
2022-09-04T22:32:52.344Z,18.50
2022-09-04T22:35:59.978Z,18.40
2022-09-04T22:39:02.262Z,18.30
2022-09-04T22:42:05.467Z,18.30
2022-09-04T22:45:10.016Z,18.10
2022-09-04T22:48:13.982Z,18.00
2022-09-04T22:51:07.551Z,17.90
2022-09-04T22:54:19.561Z,17.80
2022-09-04T22:57:11.384Z,17.70
2022-09-04T23:00:10.259Z,17.60
2022-09-04T23:03:20.415Z,17.50
2022-09-04T23:07:38.822Z,17.50
2022-09-04T23:13:44.860Z,17.50
2022-09-04T23:14:01.605Z,17.50
2022-09-04T23:16:36.590Z,17.60
2022-09-04T23:25:41.701Z,17.50
2022-09-04T23:26:43.385Z,17.50
2022-09-04T23:26:43.931Z,17.50
2022-09-04T23:29:41.135Z,17.50
2022-09-04T23:32:41.395Z,17.40
2022-09-04T23:35:36.688Z,17.30
2022-09-04T23:38:29.913Z,17.40
2022-09-04T23:41:22.717Z,17.20
2022-09-04T23:44:30.091Z,17.20
2022-09-04T23:47:48.810Z,17.10
2022-09-04T23:50:45.270Z,17.00
2022-09-04T23:53:36.114Z,16.90
2022-09-04T23:56:27.003Z,16.90
2022-09-04T23:59:39.480Z,16.90
